sensor_id;sensor_type;location;lat;lon;timestamp;pressure;altitude;pressure_sealevel;temperature;humidity
34241;BME280;20503;50.200;19.508;2022-10-18T00:02:31;102881.02;;;9.59;100.00
34241;BME280;20503;50.200;19.508;2022-10-18T00:07:42;102894.16;;;9.46;100.00
34241;BME280;20503;50.200;19.508;2022-10-18T00:12:54;102888.43;;;9.40;100.00
34241;BME280;20503;50.200;19.508;2022-10-18T00:18:03;102897.94;;;9.36;100.00
34241;BME280;20503;50.200;19.508;2022-10-18T00:23:14;102902.26;;;9.29;100.00
34241;BME280;20503;50.200;19.508;2022-10-18T00:28:25;102901.61;;;9.08;100.00
34241;BME280;20503;50.200;19.508;2022-10-18T00:33:36;102895.77;;;9.30;100.00
34241;BME280;20503;50.200;19.508;2022-10-18T00:38:47;102889.50;;;9.20;100.00
34241;BME280;20503;50.200;19.508;2022-10-18T00:44:03;102896.03;;;9.00;100.00
34241;BME280;20503;50.200;19.508;2022-10-18T00:49:21;102907.12;;;8.80;100.00
34241;BME280;20503;50.200;19.508;2022-10-18T00:54:24;102886.22;;;9.07;100.00
34241;BME280;20503;50.200;19.508;2022-10-18T00:59:29;102891.84;;;9.51;100.00
34241;BME280;20503;50.200;19.508;2022-10-18T01:04:40;102891.28;;;9.48;100.00
34241;BME280;20503;50.200;19.508;2022-10-18T01:15:12;102873.73;;;9.77;100.00
34241;BME280;20503;50.200;19.508;2022-10-18T01:30:51;102878.56;;;9.20;100.00
34241;BME280;20503;50.200;19.508;2022-10-18T01:35:59;102877.45;;;9.49;100.00
34241;BME280;20503;50.200;19.508;2022-10-18T01:41:04;102868.29;;;9.95;100.00
34241;BME280;20503;50.200;19.508;2022-10-18T01:46:07;102865.95;;;10.09;100.00
34241;BME280;20503;50.200;19.508;2022-10-18T01:51:23;102862.74;;;10.31;100.00
34241;BME280;20503;50.200;19.508;2022-10-18T02:01:57;102846.72;;;10.54;97.68
34241;BME280;20503;50.200;19.508;2022-10-18T02:07:08;102849.13;;;10.74;95.91
34241;BME280;20503;50.200;19.508;2022-10-18T02:12:13;102842.25;;;10.35;96.34
34241;BME280;20503;50.200;19.508;2022-10-18T02:17:17;102848.92;;;9.88;98.69
34241;BME280;20503;50.200;19.508;2022-10-18T02:22:25;102854.99;;;9.55;100.00
34241;BME280;20503;50.200;19.508;2022-10-18T02:27:32;102847.77;;;9.28;100.00
34241;BME280;20503;50.200;19.508;2022-10-18T02:32:52;102842.45;;;9.26;100.00
34241;BME280;20503;50.200;19.508;2022-10-18T02:37:56;102837.63;;;9.37;100.00
34241;BME280;20503;50.200;19.508;2022-10-18T02:43:05;102833.91;;;9.92;100.00
34241;BME280;20503;50.200;19.508;2022-10-18T02:48:15;102829.84;;;9.96;97.77
34241;BME280;20503;50.200;19.508;2022-10-18T02:53:26;102838.49;;;10.36;94.56
34241;BME280;20503;50.200;19.508;2022-10-18T02:58:37;102837.45;;;10.02;96.43
34241;BME280;20503;50.200;19.508;2022-10-18T03:03:47;102830.84;;;10.40;93.85
34241;BME280;20503;50.200;19.508;2022-10-18T03:09:00;102826.67;;;10.53;91.60
34241;BME280;20503;50.200;19.508;2022-10-18T03:14:09;102829.86;;;10.66;89.91
34241;BME280;20503;50.200;19.508;2022-10-18T03:19:20;102834.18;;;10.69;89.32
34241;BME280;20503;50.200;19.508;2022-10-18T03:24:30;102826.67;;;11.21;85.89
34241;BME280;20503;50.200;19.508;2022-10-18T03:29:41;102829.67;;;11.11;85.84
34241;BME280;20503;50.200;19.508;2022-10-18T03:34:52;102784.98;;;10.85;85.66
34241;BME280;20503;50.200;19.508;2022-10-18T03:40:04;102823.11;;;11.29;84.28
34241;BME280;20503;50.200;19.508;2022-10-18T03:45:14;102816.73;;;11.20;84.16
34241;BME280;20503;50.200;19.508;2022-10-18T03:50:24;102812.50;;;11.01;84.77
34241;BME280;20503;50.200;19.508;2022-10-18T03:55:36;102822.48;;;10.84;85.09
34241;BME280;20503;50.200;19.508;2022-10-18T04:00:52;102832.31;;;10.34;87.95
34241;BME280;20503;50.200;19.508;2022-10-18T04:05:56;102819.59;;;10.25;88.83
34241;BME280;20503;50.200;19.508;2022-10-18T04:11:07;102825.52;;;10.38;87.74
34241;BME280;20503;50.200;19.508;2022-10-18T04:16:18;102827.45;;;10.11;88.77
34241;BME280;20503;50.200;19.508;2022-10-18T04:21:29;102837.02;;;9.53;91.73
34241;BME280;20503;50.200;19.508;2022-10-18T04:26:39;102834.16;;;9.45;93.95
34241;BME280;20503;50.200;19.508;2022-10-18T04:31:50;102836.39;;;9.59;92.29
34241;BME280;20503;50.200;19.508;2022-10-18T04:37:01;102845.88;;;9.64;91.65
34241;BME280;20503;50.200;19.508;2022-10-18T04:42:12;102842.36;;;9.99;91.43
34241;BME280;20503;50.200;19.508;2022-10-18T04:47:22;102843.68;;;10.39;88.31
34241;BME280;20503;50.200;19.508;2022-10-18T04:52:33;102847.50;;;10.46;87.57
34241;BME280;20503;50.200;19.508;2022-10-18T04:57:44;102839.43;;;10.45;87.46
34241;BME280;20503;50.200;19.508;2022-10-18T05:02:56;102838.74;;;10.25;88.03
34241;BME280;20503;50.200;19.508;2022-10-18T05:08:06;102845.55;;;10.21;88.34
34241;BME280;20503;50.200;19.508;2022-10-18T05:13:16;102850.15;;;9.94;89.20
34241;BME280;20503;50.200;19.508;2022-10-18T05:18:27;102841.49;;;9.98;89.51
34241;BME280;20503;50.200;19.508;2022-10-18T05:23:38;102845.24;;;10.24;88.33
34241;BME280;20503;50.200;19.508;2022-10-18T05:28:49;102847.57;;;10.19;88.75
34241;BME280;20503;50.200;19.508;2022-10-18T05:33:59;102852.43;;;10.25;88.79
34241;BME280;20503;50.200;19.508;2022-10-18T05:39:10;102841.82;;;10.83;86.47
34241;BME280;20503;50.200;19.508;2022-10-18T05:44:21;102841.73;;;10.92;85.14
34241;BME280;20503;50.200;19.508;2022-10-18T05:49:31;102826.34;;;10.99;85.07
34241;BME280;20503;50.200;19.508;2022-10-18T05:54:42;102834.23;;;11.27;83.82
34241;BME280;20503;50.200;19.508;2022-10-18T05:59:53;102835.80;;;11.30;83.71
34241;BME280;20503;50.200;19.508;2022-10-18T06:05:04;102845.27;;;11.61;82.60
34241;BME280;20503;50.200;19.508;2022-10-18T06:10:15;102832.69;;;12.00;80.85
34241;BME280;20503;50.200;19.508;2022-10-18T06:15:25;102842.92;;;12.55;77.78
34241;BME280;20503;50.200;19.508;2022-10-18T06:20:36;102838.49;;;12.62;78.98
34241;BME280;20503;50.200;19.508;2022-10-18T06:25:47;102835.76;;;12.94;76.33
34241;BME280;20503;50.200;19.508;2022-10-18T06:30:58;102835.09;;;13.46;74.91
34241;BME280;20503;50.200;19.508;2022-10-18T06:36:11;102836.76;;;13.63;74.05
34241;BME280;20503;50.200;19.508;2022-10-18T06:41:19;102828.34;;;13.57;72.95
34241;BME280;20503;50.200;19.508;2022-10-18T06:46:30;102844.12;;;14.62;70.79
34241;BME280;20503;50.200;19.508;2022-10-18T06:51:42;102839.78;;;14.68;71.02
34241;BME280;20503;50.200;19.508;2022-10-18T06:56:55;102842.64;;;15.11;68.86
34241;BME280;20503;50.200;19.508;2022-10-18T07:02:02;102836.20;;;14.82;71.34
34241;BME280;20503;50.200;19.508;2022-10-18T07:07:13;102836.70;;;14.85;70.98
34241;BME280;20503;50.200;19.508;2022-10-18T07:12:24;102828.55;;;14.92;68.74
34241;BME280;20503;50.200;19.508;2022-10-18T07:17:34;102826.48;;;15.08;69.33
34241;BME280;20503;50.200;19.508;2022-10-18T07:22:45;102837.17;;;15.25;69.18
34241;BME280;20503;50.200;19.508;2022-10-18T07:27:56;102835.74;;;16.02;67.05
34241;BME280;20503;50.200;19.508;2022-10-18T07:33:06;102830.40;;;15.28;67.12
34241;BME280;20503;50.200;19.508;2022-10-18T07:38:17;102833.31;;;15.49;66.76
34241;BME280;20503;50.200;19.508;2022-10-18T07:43:28;102841.53;;;16.07;65.45
34241;BME280;20503;50.200;19.508;2022-10-18T07:48:39;102833.81;;;16.02;64.66
34241;BME280;20503;50.200;19.508;2022-10-18T07:53:50;102831.34;;;16.43;64.54
34241;BME280;20503;50.200;19.508;2022-10-18T07:59:00;102825.22;;;16.68;63.96
34241;BME280;20503;50.200;19.508;2022-10-18T08:04:11;102821.22;;;16.71;63.32
34241;BME280;20503;50.200;19.508;2022-10-18T08:09:22;102816.87;;;16.83;63.12
34241;BME280;20503;50.200;19.508;2022-10-18T08:14:32;102812.77;;;16.79;63.00
34241;BME280;20503;50.200;19.508;2022-10-18T08:19:43;102812.09;;;16.98;62.68
34241;BME280;20503;50.200;19.508;2022-10-18T08:24:54;102798.40;;;16.90;62.16
34241;BME280;20503;50.200;19.508;2022-10-18T08:30:05;102782.96;;;17.02;59.24
34241;BME280;20503;50.200;19.508;2022-10-18T08:35:15;102777.67;;;17.34;57.35
34241;BME280;20503;50.200;19.508;2022-10-18T08:40:27;102774.33;;;17.45;57.69
34241;BME280;20503;50.200;19.508;2022-10-18T08:45:39;102767.43;;;17.68;56.63
34241;BME280;20503;50.200;19.508;2022-10-18T08:50:48;102757.99;;;18.16;55.13
34241;BME280;20503;50.200;19.508;2022-10-18T09:06:39;102748.92;;;19.76;50.09
34241;BME280;20503;50.200;19.508;2022-10-18T09:22:17;102734.27;;;19.56;49.86
34241;BME280;20503;50.200;19.508;2022-10-18T09:27:21;102718.88;;;19.98;47.65
34241;BME280;20503;50.200;19.508;2022-10-18T09:37:43;102716.92;;;19.98;47.76
34241;BME280;20503;50.200;19.508;2022-10-18T09:42:54;102717.47;;;19.12;48.99
34241;BME280;20503;50.200;19.508;2022-10-18T09:48:06;102720.62;;;19.92;47.39
34241;BME280;20503;50.200;19.508;2022-10-18T09:58:27;102695.55;;;19.55;47.15
34241;BME280;20503;50.200;19.508;2022-10-18T10:03:32;102692.19;;;20.77;45.00
34241;BME280;20503;50.200;19.508;2022-10-18T10:08:34;102699.04;;;20.25;46.71
34241;BME280;20503;50.200;19.508;2022-10-18T10:13:39;102692.25;;;20.70;45.84
34241;BME280;20503;50.200;19.508;2022-10-18T10:18:53;102679.08;;;21.73;43.07
34241;BME280;20503;50.200;19.508;2022-10-18T10:24:01;102667.40;;;20.20;44.40
34241;BME280;20503;50.200;19.508;2022-10-18T10:34:28;102654.13;;;22.83;40.66
34241;BME280;20503;50.200;19.508;2022-10-18T10:39:33;102648.09;;;21.81;42.26
34241;BME280;20503;50.200;19.508;2022-10-18T10:44:51;102635.63;;;23.28;39.48
34241;BME280;20503;50.200;19.508;2022-10-18T10:49:55;102631.73;;;21.85;41.77
34241;BME280;20503;50.200;19.508;2022-10-18T11:10:52;102585.83;;;21.69;40.29
34241;BME280;20503;50.200;19.508;2022-10-18T11:16:04;102588.93;;;22.43;39.63
34241;BME280;20503;50.200;19.508;2022-10-18T11:21:14;102573.02;;;22.67;37.32
34241;BME280;20503;50.200;19.508;2022-10-18T11:26:25;102555.47;;;22.02;39.24
34241;BME280;20503;50.200;19.508;2022-10-18T11:31:36;102564.98;;;24.05;35.98
34241;BME280;20503;50.200;19.508;2022-10-18T12:08:02;102515.47;;;23.16;38.40
34241;BME280;20503;50.200;19.508;2022-10-18T12:13:10;102502.67;;;23.48;37.47
34241;BME280;20503;50.200;19.508;2022-10-18T12:18:17;102495.55;;;23.13;37.88
34241;BME280;20503;50.200;19.508;2022-10-18T12:28:48;102473.62;;;23.21;37.63
34241;BME280;20503;50.200;19.508;2022-10-18T12:33:54;102474.27;;;22.73;39.00
34241;BME280;20503;50.200;19.508;2022-10-18T12:39:03;102456.95;;;23.87;36.99
34241;BME280;20503;50.200;19.508;2022-10-18T12:44:16;102453.48;;;26.10;34.37
34241;BME280;20503;50.200;19.508;2022-10-18T12:49:16;102439.77;;;24.17;37.37
34241;BME280;20503;50.200;19.508;2022-10-18T12:59:39;102428.09;;;24.03;37.12
34241;BME280;20503;50.200;19.508;2022-10-18T13:04:40;102401.88;;;22.71;39.41
34241;BME280;20503;50.200;19.508;2022-10-18T13:15:15;102408.77;;;23.85;37.11
34241;BME280;20503;50.200;19.508;2022-10-18T13:20:26;102399.71;;;21.99;41.44
34241;BME280;20503;50.200;19.508;2022-10-18T13:25:34;102399.23;;;22.65;40.95
34241;BME280;20503;50.200;19.508;2022-10-18T13:41:12;102379.97;;;23.07;39.04
34241;BME280;20503;50.200;19.508;2022-10-18T13:46:14;102389.01;;;22.70;41.70
34241;BME280;20503;50.200;19.508;2022-10-18T13:56:40;102365.66;;;22.48;40.97
34241;BME280;20503;50.200;19.508;2022-10-18T14:06:58;102367.27;;;22.44;41.75
34241;BME280;20503;50.200;19.508;2022-10-18T14:27:43;102343.10;;;20.60;47.78
34241;BME280;20503;50.200;19.508;2022-10-18T14:32:51;102337.05;;;20.15;49.43
34241;BME280;20503;50.200;19.508;2022-10-18T14:37:54;102333.11;;;20.23;50.73
34241;BME280;20503;50.200;19.508;2022-10-18T14:43:01;102332.10;;;20.65;50.07
34241;BME280;20503;50.200;19.508;2022-10-18T14:48:14;102330.50;;;20.57;49.92
34241;BME280;20503;50.200;19.508;2022-10-18T14:53:19;102332.13;;;20.76;50.12
34241;BME280;20503;50.200;19.508;2022-10-18T14:58:29;102327.06;;;20.44;50.87
34241;BME280;20503;50.200;19.508;2022-10-18T15:03:42;102330.41;;;20.64;50.91
34241;BME280;20503;50.200;19.508;2022-10-18T15:08:57;102322.77;;;19.94;52.67
34241;BME280;20503;50.200;19.508;2022-10-18T15:14:03;102332.16;;;19.75;53.24
34241;BME280;20503;50.200;19.508;2022-10-18T15:24:33;102306.13;;;18.47;56.69
34241;BME280;20503;50.200;19.508;2022-10-18T15:29:34;102301.97;;;18.19;57.54
34241;BME280;20503;50.200;19.508;2022-10-18T15:34:44;102304.56;;;18.14;56.83
34241;BME280;20503;50.200;19.508;2022-10-18T15:55:44;102306.95;;;17.34;59.34
34241;BME280;20503;50.200;19.508;2022-10-18T16:00:48;102300.55;;;17.20;59.51
34241;BME280;20503;50.200;19.508;2022-10-18T16:05:58;102298.23;;;17.04;60.67
34241;BME280;20503;50.200;19.508;2022-10-18T16:11:00;102300.34;;;16.83;61.08
34241;BME280;20503;50.200;19.508;2022-10-18T16:16:19;102309.91;;;16.87;61.22
34241;BME280;20503;50.200;19.508;2022-10-18T16:21:28;102320.98;;;16.94;60.88
34241;BME280;20503;50.200;19.508;2022-10-18T16:26:32;102327.80;;;16.85;61.21
34241;BME280;20503;50.200;19.508;2022-10-18T16:31:42;102328.00;;;16.77;61.61
34241;BME280;20503;50.200;19.508;2022-10-18T16:36:53;102323.33;;;16.71;61.92
34241;BME280;20503;50.200;19.508;2022-10-18T16:42:03;102324.39;;;16.96;60.96
34241;BME280;20503;50.200;19.508;2022-10-18T16:47:14;102328.86;;;16.97;61.00
34241;BME280;20503;50.200;19.508;2022-10-18T16:52:25;102330.34;;;16.80;61.46
34241;BME280;20503;50.200;19.508;2022-10-18T16:57:36;102337.59;;;16.94;60.95
34241;BME280;20503;50.200;19.508;2022-10-18T17:02:48;102336.95;;;16.92;60.83
34241;BME280;20503;50.200;19.508;2022-10-18T17:07:57;102342.04;;;16.88;61.00
34241;BME280;20503;50.200;19.508;2022-10-18T17:13:08;102341.44;;;17.05;60.35
34241;BME280;20503;50.200;19.508;2022-10-18T17:18:22;102348.65;;;16.94;61.08
34241;BME280;20503;50.200;19.508;2022-10-18T17:23:29;102349.54;;;17.01;60.51
34241;BME280;20503;50.200;19.508;2022-10-18T17:28:43;102358.46;;;16.96;60.87
34241;BME280;20503;50.200;19.508;2022-10-18T17:33:51;102356.15;;;17.06;60.53
34241;BME280;20503;50.200;19.508;2022-10-18T17:39:03;102357.85;;;17.13;60.43
34241;BME280;20503;50.200;19.508;2022-10-18T17:44:29;102358.24;;;17.10;60.79
34241;BME280;20503;50.200;19.508;2022-10-18T17:49:39;102355.48;;;17.10;61.27
34241;BME280;20503;50.200;19.508;2022-10-18T17:54:50;102365.29;;;17.19;60.65
34241;BME280;20503;50.200;19.508;2022-10-18T18:00:01;102356.12;;;17.19;60.88
34241;BME280;20503;50.200;19.508;2022-10-18T18:05:12;102364.22;;;17.14;61.43
34241;BME280;20503;50.200;19.508;2022-10-18T18:10:22;102365.49;;;17.18;61.43
34241;BME280;20503;50.200;19.508;2022-10-18T18:15:33;102368.26;;;17.11;62.63
34241;BME280;20503;50.200;19.508;2022-10-18T18:20:50;102366.98;;;17.07;62.62
34241;BME280;20503;50.200;19.508;2022-10-18T18:26:06;102364.41;;;17.12;62.74
34241;BME280;20503;50.200;19.508;2022-10-18T18:31:10;102355.48;;;17.04;63.20
34241;BME280;20503;50.200;19.508;2022-10-18T18:36:17;102356.77;;;17.02;64.60
34241;BME280;20503;50.200;19.508;2022-10-18T18:41:27;102347.39;;;16.96;65.03
34241;BME280;20503;50.200;19.508;2022-10-18T18:46:37;102350.80;;;16.92;65.87
34241;BME280;20503;50.200;19.508;2022-10-18T18:51:48;102358.24;;;16.85;66.84
34241;BME280;20503;50.200;19.508;2022-10-18T18:56:59;102356.12;;;16.87;67.37
34241;BME280;20503;50.200;19.508;2022-10-18T19:02:10;102356.96;;;16.81;68.28
34241;BME280;20503;50.200;19.508;2022-10-18T19:07:21;102362.06;;;16.77;69.44
34241;BME280;20503;50.200;19.508;2022-10-18T19:12:31;102352.25;;;16.75;70.61
34241;BME280;20503;50.200;19.508;2022-10-18T19:17:42;102362.47;;;16.68;71.52
34241;BME280;20503;50.200;19.508;2022-10-18T19:22:53;102358.20;;;16.65;72.27
34241;BME280;20503;50.200;19.508;2022-10-18T19:28:04;102364.35;;;16.61;72.82
34241;BME280;20503;50.200;19.508;2022-10-18T19:33:14;102370.30;;;16.58;73.77
34241;BME280;20503;50.200;19.508;2022-10-18T19:38:25;102374.95;;;16.44;74.79
34241;BME280;20503;50.200;19.508;2022-10-18T19:43:35;102376.13;;;16.29;75.92
34241;BME280;20503;50.200;19.508;2022-10-18T19:48:46;102396.12;;;16.24;76.69
34241;BME280;20503;50.200;19.508;2022-10-18T19:53:57;102423.40;;;15.72;83.73
34241;BME280;20503;50.200;19.508;2022-10-18T19:59:09;102429.60;;;14.84;96.20
34241;BME280;20503;50.200;19.508;2022-10-18T20:04:18;102446.84;;;14.22;100.00
34241;BME280;20503;50.200;19.508;2022-10-18T20:09:29;102436.09;;;14.12;100.00
34241;BME280;20503;50.200;19.508;2022-10-18T20:14:40;102438.95;;;14.04;100.00
34241;BME280;20503;50.200;19.508;2022-10-18T20:19:51;102449.77;;;13.91;100.00
34241;BME280;20503;50.200;19.508;2022-10-18T20:25:01;102455.73;;;13.80;100.00
34241;BME280;20503;50.200;19.508;2022-10-18T20:30:12;102466.45;;;13.90;100.00
34241;BME280;20503;50.200;19.508;2022-10-18T20:35:23;102480.05;;;13.77;100.00
34241;BME280;20503;50.200;19.508;2022-10-18T20:40:34;102489.15;;;13.77;100.00
34241;BME280;20503;50.200;19.508;2022-10-18T20:45:44;102495.01;;;13.60;100.00
34241;BME280;20503;50.200;19.508;2022-10-18T20:50:55;102493.38;;;13.65;100.00
34241;BME280;20503;50.200;19.508;2022-10-18T20:56:11;102494.77;;;13.47;100.00
34241;BME280;20503;50.200;19.508;2022-10-18T21:01:19;102502.11;;;13.54;100.00
34241;BME280;20503;50.200;19.508;2022-10-18T21:06:32;102509.09;;;13.42;100.00
34241;BME280;20503;50.200;19.508;2022-10-18T21:11:40;102518.54;;;13.17;100.00
34241;BME280;20503;50.200;19.508;2022-10-18T21:16:50;102525.54;;;13.06;100.00
34241;BME280;20503;50.200;19.508;2022-10-18T21:22:00;102512.15;;;13.03;100.00
34241;BME280;20503;50.200;19.508;2022-10-18T21:27:10;102508.90;;;12.99;100.00
34241;BME280;20503;50.200;19.508;2022-10-18T21:32:21;102517.32;;;12.98;100.00
34241;BME280;20503;50.200;19.508;2022-10-18T21:37:32;102517.58;;;12.80;100.00
34241;BME280;20503;50.200;19.508;2022-10-18T21:42:43;102510.40;;;12.71;100.00
34241;BME280;20503;50.200;19.508;2022-10-18T21:47:53;102513.28;;;12.78;100.00
34241;BME280;20503;50.200;19.508;2022-10-18T21:53:04;102518.77;;;12.86;100.00
34241;BME280;20503;50.200;19.508;2022-10-18T21:58:15;102506.81;;;12.71;100.00
34241;BME280;20503;50.200;19.508;2022-10-18T22:03:26;102506.08;;;12.77;100.00
34241;BME280;20503;50.200;19.508;2022-10-18T22:08:36;102504.76;;;12.65;100.00
34241;BME280;20503;50.200;19.508;2022-10-18T22:13:47;102506.47;;;12.66;100.00
34241;BME280;20503;50.200;19.508;2022-10-18T22:19:00;102515.61;;;12.58;100.00
34241;BME280;20503;50.200;19.508;2022-10-18T22:24:09;102515.80;;;12.57;100.00
34241;BME280;20503;50.200;19.508;2022-10-18T22:29:20;102507.66;;;12.33;100.00
34241;BME280;20503;50.200;19.508;2022-10-18T22:34:30;102493.51;;;12.13;100.00
34241;BME280;20503;50.200;19.508;2022-10-18T22:39:41;102503.66;;;12.05;100.00
34241;BME280;20503;50.200;19.508;2022-10-18T22:44:51;102502.78;;;12.04;100.00
34241;BME280;20503;50.200;19.508;2022-10-18T22:50:03;102501.55;;;12.15;100.00
34241;BME280;20503;50.200;19.508;2022-10-18T22:55:13;102507.08;;;12.07;100.00
34241;BME280;20503;50.200;19.508;2022-10-18T23:00:24;102506.16;;;12.22;100.00
34241;BME280;20503;50.200;19.508;2022-10-18T23:05:42;102522.83;;;12.21;100.00
34241;BME280;20503;50.200;19.508;2022-10-18T23:10:45;102527.80;;;12.09;100.00
34241;BME280;20503;50.200;19.508;2022-10-18T23:16:02;102531.27;;;12.11;100.00
34241;BME280;20503;50.200;19.508;2022-10-18T23:21:09;102525.38;;;12.22;100.00
34241;BME280;20503;50.200;19.508;2022-10-18T23:26:20;102532.41;;;12.25;100.00
34241;BME280;20503;50.200;19.508;2022-10-18T23:31:31;102518.73;;;12.09;100.00
34241;BME280;20503;50.200;19.508;2022-10-18T23:36:39;102518.38;;;12.12;100.00
34241;BME280;20503;50.200;19.508;2022-10-18T23:41:50;102516.54;;;11.96;100.00
34241;BME280;20503;50.200;19.508;2022-10-18T23:47:00;102518.05;;;11.99;100.00
34241;BME280;20503;50.200;19.508;2022-10-18T23:52:11;102525.61;;;12.05;100.00
34241;BME280;20503;50.200;19.508;2022-10-18T23:57:22;102518.41;;;11.96;100.00
